Terminal Aerodrome Forecast
Issued by NWS

Home | Current Version | Previous Version | Text Only | Print | Product List | Glossary On
Versions: 1 2 3 4 5 6 7 8 9 10 11 12 13 14 15 16 17 18
000
FTUS43 KSGF 011125
TAFBBG
TAF
KBBG 011125Z 0112/0212 VRB03KT P6SM SKC
      TEMPO 0112/0114 2SM BR
     FM011500 31007KT P6SM SKC
     FM020700 01005KT P6SM SCT030
     FM020900 01005KT P6SM BKN015
     FM021000 02005KT P6SM OVC003=

USA.gov is the U.S. government's official web portal to all federal, state and local government web resources and services.